createdAt,value
2019-04-23T00:00:08.762Z,0.00
2019-04-23T00:01:14.842Z,0.00
2019-04-23T00:02:06.608Z,0.00
2019-04-23T00:03:18.752Z,0.00
2019-04-23T00:04:08.445Z,0.00
2019-04-23T00:05:01.782Z,0.00
2019-04-23T00:06:15.525Z,0.00
2019-04-23T00:07:15.767Z,0.00
2019-04-23T00:09:12.563Z,0.00
2019-04-23T00:10:13.926Z,0.00
2019-04-23T00:11:05.300Z,0.00
2019-04-23T00:12:12.676Z,0.00
2019-04-23T00:12:59.258Z,0.00
2019-04-23T00:14:08.449Z,0.00
2019-04-23T00:15:07.378Z,0.00
2019-04-23T00:16:12.887Z,0.00
2019-04-23T00:17:04.658Z,0.00
2019-04-23T00:18:09.658Z,0.00
2019-04-23T00:18:58.882Z,0.00
2019-04-23T00:20:11.183Z,0.00
2019-04-23T00:21:11.253Z,0.00
2019-04-23T00:22:07.292Z,0.00
2019-04-23T00:23:07.804Z,0.00
2019-04-23T00:24:12.076Z,0.00
2019-04-23T00:26:24.041Z,0.00
2019-04-23T00:27:19.170Z,0.00
2019-04-23T00:29:18.966Z,0.00
2019-04-23T00:31:07.889Z,0.00
2019-04-23T00:32:10.087Z,0.00
2019-04-23T00:33:05.606Z,0.00
2019-04-23T00:34:01.048Z,0.00
2019-04-23T00:35:05.971Z,0.00
2019-04-23T00:36:03.164Z,0.00
2019-04-23T00:37:11.274Z,0.00
2019-04-23T00:38:12.084Z,0.00
2019-04-23T00:39:01.267Z,0.00
2019-04-23T00:40:03.246Z,0.00
2019-04-23T00:41:02.948Z,0.00
2019-04-23T00:42:08.280Z,0.00
2019-04-23T00:43:03.811Z,0.00
2019-04-23T00:45:00.231Z,0.00
2019-04-23T00:45:59.702Z,0.00
2019-04-23T00:47:00.985Z,0.00
2019-04-23T00:48:12.733Z,0.00
2019-04-23T00:49:06.092Z,0.00
2019-04-23T00:50:19.335Z,0.00
2019-04-23T00:50:58.226Z,0.00
2019-04-23T00:52:05.898Z,0.00
2019-04-23T00:53:04.586Z,0.00
2019-04-23T00:54:06.440Z,0.00
2019-04-23T00:56:20.637Z,0.00
2019-04-23T00:57:07.388Z,0.00
2019-04-23T00:58:10.396Z,0.00
2019-04-23T00:59:00.419Z,0.00
2019-04-23T01:00:13.913Z,0.00
2019-04-23T01:01:02.481Z,0.00
2019-04-23T01:02:03.898Z,0.00
2019-04-23T01:03:05.885Z,0.00
2019-04-23T01:04:18.518Z,0.00
2019-04-23T01:06:21.060Z,0.00
2019-04-23T01:07:04.336Z,0.00
2019-04-23T01:08:07.074Z,0.00
2019-04-23T01:09:03.768Z,0.00
2019-04-23T01:10:10.223Z,0.00
2019-04-23T01:11:06.310Z,0.00
2019-04-23T01:12:09.328Z,0.00
2019-04-23T01:13:11.307Z,0.00
2019-04-23T01:14:04.852Z,0.00
2019-04-23T01:15:02.809Z,0.00
2019-04-23T01:16:05.429Z,0.00
2019-04-23T01:17:08.440Z,0.00
2019-04-23T01:19:24.511Z,0.00
2019-04-23T01:20:01.674Z,0.00
2019-04-23T01:20:53.567Z,0.00
2019-04-23T01:21:43.295Z,0.00
2019-04-23T01:22:42.225Z,0.00
2019-04-23T01:23:51.888Z,0.00
2019-04-23T01:24:44.232Z,0.00
2019-04-23T01:25:53.759Z,0.00
2019-04-23T01:27:23.710Z,0.00
2019-04-23T01:28:11.031Z,0.00
2019-04-23T01:29:06.738Z,0.00
2019-04-23T01:30:09.643Z,0.00
2019-04-23T01:31:10.224Z,0.00
2019-04-23T01:32:13.401Z,0.00
2019-04-23T01:33:11.063Z,0.00
2019-04-23T01:34:08.405Z,0.00
2019-04-23T01:35:12.789Z,0.00
2019-04-23T01:36:20.627Z,0.00
2019-04-23T01:37:15.176Z,0.00
2019-04-23T01:38:04.512Z,0.00
2019-04-23T01:39:23.198Z,0.00
2019-04-23T01:40:16.768Z,0.00
2019-04-23T01:41:07.857Z,0.00
2019-04-23T01:42:12.959Z,0.00
2019-04-23T01:43:03.597Z,0.00
2019-04-23T01:44:06.933Z,0.00
2019-04-23T01:45:16.223Z,0.00
2019-04-23T01:46:09.836Z,0.00
2019-04-23T01:47:09.620Z,0.00
2019-04-23T01:48:22.455Z,0.00
2019-04-23T01:49:07.109Z,0.00
2019-04-23T01:51:04.077Z,0.00
2019-04-23T01:52:08.206Z,0.00
2019-04-23T01:54:06.924Z,0.00
2019-04-23T01:55:09.650Z,0.00
2019-04-23T01:56:14.422Z,0.00
2019-04-23T01:57:11.472Z,0.00
2019-04-23T01:58:25.886Z,0.00
2019-04-23T01:59:16.143Z,0.00
2019-04-23T02:00:14.209Z,0.00
2019-04-23T02:01:06.519Z,0.00
2019-04-23T02:02:05.057Z,0.00
2019-04-23T02:03:12.200Z,0.00
2019-04-23T02:04:11.277Z,0.00
2019-04-23T02:06:07.457Z,0.00
2019-04-23T02:07:06.563Z,0.00
2019-04-23T02:09:05.284Z,0.00
2019-04-23T02:10:34.438Z,0.00
2019-04-23T02:12:04.475Z,0.00
2019-04-23T02:13:12.089Z,0.00
2019-04-23T02:14:24.846Z,0.00
2019-04-23T02:15:13.852Z,0.00
2019-04-23T02:16:05.112Z,0.00
2019-04-23T02:17:10.238Z,0.00
2019-04-23T02:20:09.179Z,0.00
2019-04-23T02:21:07.011Z,0.00
2019-04-23T02:22:05.184Z,0.00
2019-04-23T02:23:11.621Z,0.00
2019-04-23T02:24:06.861Z,0.00
2019-04-23T02:25:13.377Z,0.00
2019-04-23T02:26:04.782Z,0.00
2019-04-23T02:27:05.630Z,0.00
2019-04-23T02:28:10.727Z,0.00
2019-04-23T02:29:26.603Z,0.00
2019-04-23T02:31:25.399Z,0.00
2019-04-23T02:35:17.012Z,0.00
2019-04-23T02:36:07.382Z,0.00
2019-04-23T02:37:15.050Z,0.00
2019-04-23T02:39:01.001Z,0.00
2019-04-23T02:40:23.648Z,0.00
2019-04-23T02:41:20.352Z,0.00
2019-04-23T02:42:41.131Z,0.00
2019-04-23T02:43:13.049Z,0.00
2019-04-23T02:45:09.389Z,0.00
2019-04-23T02:46:05.481Z,0.00
2019-04-23T02:48:19.931Z,0.00
2019-04-23T02:50:34.919Z,0.00
2019-04-23T02:51:10.723Z,0.00
2019-04-23T02:52:16.063Z,0.00
2019-04-23T02:53:20.071Z,0.00
2019-04-23T02:56:16.140Z,0.00
2019-04-23T02:57:13.324Z,0.00
2019-04-23T02:58:19.168Z,0.00
2019-04-23T02:59:21.412Z,0.00
2019-04-23T03:00:18.585Z,0.00
2019-04-23T03:02:30.834Z,0.00
2019-04-23T03:03:22.533Z,0.00
2019-04-23T03:04:19.762Z,0.00
2019-04-23T03:05:11.199Z,0.00
2019-04-23T03:07:15.590Z,0.00
2019-04-23T03:08:06.274Z,0.00
2019-04-23T03:09:13.381Z,0.00
2019-04-23T03:12:18.479Z,0.00
2019-04-23T03:13:19.365Z,0.00
2019-04-23T03:14:18.560Z,0.00
2019-04-23T03:15:21.390Z,0.00
2019-04-23T03:16:21.832Z,0.00
2019-04-23T03:17:11.143Z,0.00
2019-04-23T03:19:09.788Z,4.00
2019-04-23T03:20:15.681Z,4.00
2019-04-23T03:26:34.823Z,8.00
2019-04-23T03:28:23.181Z,8.00
2019-04-23T03:32:51.801Z,12.00
2019-04-23T03:34:30.247Z,12.00
2019-04-23T03:35:17.778Z,16.00
2019-04-23T03:37:26.462Z,28.00
2019-04-23T03:38:20.499Z,32.00
2019-04-23T03:38:55.823Z,40.00
2019-04-23T03:42:12.032Z,56.00
2019-04-23T03:44:02.137Z,76.00
2019-04-23T03:45:16.775Z,92.00
2019-04-23T03:46:15.686Z,100.00
2019-04-23T03:47:10.803Z,116.00
2019-04-23T03:48:14.892Z,136.00
2019-04-23T03:50:15.318Z,172.00
2019-04-23T03:51:13.772Z,192.00
2019-04-23T03:53:22.558Z,236.00
2019-04-23T03:55:10.341Z,292.00
2019-04-23T03:55:23.161Z,264.00
2019-04-23T03:56:14.544Z,320.00
2019-04-23T03:57:18.529Z,356.00
2019-04-23T03:58:12.193Z,392.00
2019-04-23T03:59:10.713Z,424.00
2019-04-23T04:00:12.496Z,464.00
2019-04-23T04:01:16.232Z,504.00
2019-04-23T04:03:27.577Z,588.00
2019-04-23T04:05:17.762Z,688.00
2019-04-23T04:10:06.716Z,960.00
2019-04-23T04:11:14.543Z,1020.00
2019-04-23T04:12:17.331Z,1084.00
2019-04-23T04:13:15.773Z,1144.00
2019-04-23T04:14:21.307Z,1208.00
2019-04-23T04:15:18.306Z,1276.00
2019-04-23T04:19:22.594Z,1556.00
2019-04-23T04:20:15.222Z,1624.00
2019-04-23T04:21:14.491Z,1696.00
2019-04-23T04:22:20.717Z,1772.00
2019-04-23T04:23:13.536Z,1844.00
2019-04-23T04:24:31.279Z,1916.00
2019-04-23T04:25:14.363Z,1988.00
2019-04-23T04:26:17.866Z,2060.00
2019-04-23T04:27:12.891Z,2140.00
2019-04-23T04:29:30.326Z,2288.00
2019-04-23T04:30:14.983Z,2360.00
2019-04-23T04:31:16.351Z,2436.00
2019-04-23T04:32:15.093Z,2508.00
2019-04-23T04:33:15.138Z,2580.00
2019-04-23T04:34:33.017Z,2656.00
2019-04-23T04:35:16.130Z,2732.00
2019-04-23T04:36:13.955Z,2808.00
2019-04-23T04:38:30.233Z,2952.00
2019-04-23T04:39:03.326Z,3024.00
2019-04-23T04:41:05.504Z,3164.00
2019-04-23T04:42:14.869Z,3240.00
2019-04-23T04:45:14.139Z,3452.00
2019-04-23T04:47:09.818Z,3588.00
2019-04-23T04:48:00.489Z,3652.00
2019-04-23T04:50:14.855Z,3792.00
2019-04-23T04:51:19.426Z,3860.00
2019-04-23T04:54:21.598Z,4032.00
2019-04-23T04:56:14.331Z,4164.00
2019-04-23T04:57:13.101Z,4244.00
2019-04-23T04:58:07.219Z,4312.00
2019-04-23T05:00:13.363Z,4424.00
2019-04-23T05:01:13.860Z,4476.00
2019-04-23T05:02:16.221Z,4548.00
2019-04-23T05:03:22.209Z,4608.00
2019-04-23T05:04:18.211Z,4652.00
2019-04-23T05:05:47.751Z,4736.00
2019-04-23T05:06:24.478Z,4756.00
2019-04-23T05:07:09.340Z,4832.00
2019-04-23T05:08:09.232Z,5952.00
2019-04-23T05:09:16.995Z,6020.00
2019-04-23T05:12:17.047Z,5776.00
2019-04-23T05:13:22.729Z,6420.00
2019-04-23T05:14:26.186Z,6304.00
2019-04-23T05:16:07.718Z,5756.00
2019-04-23T05:17:08.618Z,5648.00
2019-04-23T05:19:19.846Z,5848.00
2019-04-23T05:20:05.127Z,7336.00
2019-04-23T05:24:08.943Z,10756.00
2019-04-23T05:24:57.109Z,10892.00
2019-04-23T05:26:01.102Z,11564.00
2019-04-23T05:27:05.542Z,13044.00
2019-04-23T05:30:07.852Z,12356.00
2019-04-23T05:31:08.641Z,12796.00
2019-04-23T05:31:58.218Z,13672.00
2019-04-23T05:33:05.659Z,14032.00
2019-04-23T05:34:04.498Z,14248.00
2019-04-23T05:35:07.430Z,14216.00
2019-04-23T05:36:12.653Z,13844.00
2019-04-23T05:37:01.880Z,14084.00
2019-04-23T05:38:29.138Z,14496.00
2019-04-23T05:39:12.084Z,15200.00
2019-04-23T05:40:08.511Z,16288.00
2019-04-23T05:41:10.378Z,16384.00
2019-04-23T05:42:01.474Z,15168.00
2019-04-23T05:43:08.181Z,15104.00
2019-04-23T05:44:06.911Z,16128.00
2019-04-23T05:46:09.623Z,15552.00
2019-04-23T05:47:11.489Z,16288.00
2019-04-23T05:48:07.067Z,17664.00
2019-04-23T05:49:07.623Z,18688.00
2019-04-23T05:50:15.564Z,19072.00
2019-04-23T05:51:06.083Z,18816.00
2019-04-23T05:53:07.317Z,18944.00
2019-04-23T05:54:01.816Z,19744.00
2019-04-23T05:55:01.614Z,20480.00
2019-04-23T05:56:01.827Z,20704.00
2019-04-23T05:58:05.169Z,22080.00
2019-04-23T06:00:04.026Z,22144.00
2019-04-23T06:01:05.840Z,21152.00
2019-04-23T06:02:07.552Z,21856.00
2019-04-23T06:03:04.914Z,23776.00
2019-04-23T06:05:05.980Z,22752.00
2019-04-23T06:06:02.992Z,20288.00
2019-04-23T06:07:16.713Z,20960.00
2019-04-23T06:08:05.626Z,23936.00
2019-04-23T06:11:02.527Z,23680.00
2019-04-23T06:12:02.866Z,24352.00
2019-04-23T06:13:03.059Z,25888.00
2019-04-23T06:14:09.761Z,24896.00
2019-04-23T06:14:57.607Z,23040.00
2019-04-23T06:15:57.799Z,24416.00
2019-04-23T06:17:09.374Z,27424.00
2019-04-23T06:20:03.811Z,29312.00
2019-04-23T06:21:02.987Z,28672.00
2019-04-23T06:22:07.463Z,28704.00
2019-04-23T06:23:09.294Z,28320.00
2019-04-23T06:24:10.403Z,28000.00
2019-04-23T06:25:00.955Z,29152.00
2019-04-23T06:26:22.507Z,31296.00
2019-04-23T06:28:01.584Z,30656.00
2019-04-23T06:29:07.099Z,29056.00
2019-04-23T06:29:59.486Z,28864.00
2019-04-23T06:31:02.384Z,30464.00
2019-04-23T06:32:14.921Z,31744.00
2019-04-23T06:32:59.279Z,31936.00
2019-04-23T06:34:04.155Z,32608.00
2019-04-23T06:34:56.585Z,34208.00
2019-04-23T06:36:05.543Z,36608.00
2019-04-23T06:36:58.887Z,37824.00
2019-04-23T06:38:28.111Z,37344.00
2019-04-23T06:38:57.228Z,35168.00
2019-04-23T06:40:00.393Z,32000.00
2019-04-23T06:41:06.759Z,30272.00
2019-04-23T06:42:00.368Z,31936.00
2019-04-23T06:43:02.735Z,35968.00
2019-04-23T06:44:08.828Z,38784.00
2019-04-23T06:45:59.385Z,36608.00
2019-04-23T06:48:01.650Z,35808.00
2019-04-23T06:49:02.109Z,38368.00
2019-04-23T06:51:04.236Z,42272.00
2019-04-23T06:52:54.605Z,39424.00
2019-04-23T06:53:56.763Z,40160.00
2019-04-23T06:55:01.386Z,43200.00
2019-04-23T06:56:08.066Z,45120.00
2019-04-23T06:57:09.070Z,44448.00
2019-04-23T06:58:06.351Z,41536.00
2019-04-23T06:59:00.818Z,40000.00
2019-04-23T07:00:02.422Z,39392.00
2019-04-23T07:01:03.346Z,41568.00
2019-04-23T07:02:06.278Z,42784.00
2019-04-23T07:02:59.705Z,42272.00
2019-04-23T07:06:11.449Z,45696.00
2019-04-23T07:07:29.715Z,46720.00
2019-04-23T07:09:07.831Z,42560.00
2019-04-23T07:09:57.936Z,41760.00
2019-04-23T07:11:08.096Z,41792.00
2019-04-23T07:11:59.048Z,43360.00
2019-04-23T07:13:03.157Z,44448.00
2019-04-23T07:13:58.654Z,46336.00
2019-04-23T07:15:11.653Z,47904.00
2019-04-23T07:15:58.732Z,49792.00
2019-04-23T07:16:57.091Z,49600.00
2019-04-23T07:17:54.295Z,47392.00
2019-04-23T07:19:04.623Z,47136.00
2019-04-23T07:20:02.208Z,48064.00
2019-04-23T07:21:00.652Z,49024.00
2019-04-23T07:22:12.227Z,48832.00
2019-04-23T07:23:04.959Z,48384.00
2019-04-23T07:25:00.072Z,49536.00
2019-04-23T07:26:06.103Z,51776.00
2019-04-23T07:26:55.905Z,56384.00
2019-04-23T07:27:59.027Z,58016.00
2019-04-23T07:30:03.605Z,54688.00
2019-04-23T07:31:02.174Z,53184.00
2019-04-23T07:31:59.312Z,52352.00
2019-04-23T07:32:56.648Z,52736.00
2019-04-23T07:34:01.161Z,52448.00
2019-04-23T07:36:00.510Z,51584.00
2019-04-23T07:37:16.096Z,52736.00
2019-04-23T07:38:11.070Z,56064.00
2019-04-23T07:39:20.567Z,57344.00
2019-04-23T07:40:19.663Z,55232.00
2019-04-23T07:41:14.520Z,53280.00
2019-04-23T07:42:09.367Z,53088.00
2019-04-23T07:43:00.024Z,56512.00
2019-04-23T07:44:07.798Z,62208.00
2019-04-23T07:46:08.154Z,69952.00
2019-04-23T07:47:13.118Z,68992.00
2019-04-23T07:48:08.103Z,69696.00
2019-04-23T07:48:56.721Z,69952.00
2019-04-23T07:50:09.827Z,68704.00
2019-04-23T07:50:55.163Z,67808.00
2019-04-23T07:52:04.808Z,67200.00
2019-04-23T07:53:06.771Z,66720.00
2019-04-23T07:54:16.304Z,65248.00
2019-04-23T07:55:02.289Z,62976.00
2019-04-23T07:56:03.796Z,61344.00
2019-04-23T07:58:06.508Z,59232.00
2019-04-23T07:59:05.292Z,59200.00
2019-04-23T08:00:02.581Z,61440.00
2019-04-23T08:00:58.204Z,66816.00
2019-04-23T08:02:12.843Z,73728.00
2019-04-23T08:03:08.579Z,76704.00
2019-04-23T08:04:04.588Z,76160.00
2019-04-23T08:05:58.456Z,66208.00
2019-04-23T08:07:00.795Z,64832.00
2019-04-23T08:08:56.617Z,65440.00
2019-04-23T08:10:00.254Z,66720.00
2019-04-23T08:11:16.082Z,67936.00
2019-04-23T08:11:56.281Z,69984.00
2019-04-23T08:13:00.952Z,71104.00
2019-04-23T08:13:58.261Z,70112.00
2019-04-23T08:14:59.844Z,67904.00
2019-04-23T08:16:07.043Z,65632.00
2019-04-23T08:17:00.691Z,63680.00
2019-04-23T08:17:59.010Z,68064.00
2019-04-23T08:20:03.021Z,78720.00
2019-04-23T08:20:57.097Z,80768.00
2019-04-23T08:22:06.627Z,81152.00
2019-04-23T08:23:03.909Z,79264.00
2019-04-23T08:24:01.927Z,75072.00
2019-04-23T08:25:08.435Z,68608.00
2019-04-23T08:26:02.402Z,63264.00
2019-04-23T08:26:59.047Z,62848.00
2019-04-23T08:27:59.386Z,65792.00
2019-04-23T08:29:05.872Z,69280.00
2019-04-23T08:29:55.702Z,72768.00
2019-04-23T08:31:00.792Z,74720.00
2019-04-23T08:32:00.249Z,76384.00
2019-04-23T08:32:58.827Z,75552.00
2019-04-23T08:34:15.009Z,74144.00
2019-04-23T08:36:09.486Z,71776.00
2019-04-23T08:37:07.219Z,71744.00
2019-04-23T08:38:11.978Z,71072.00
2019-04-23T08:39:00.053Z,71200.00
2019-04-23T08:39:52.131Z,72576.00
2019-04-23T08:41:14.224Z,71904.00
2019-04-23T08:42:21.546Z,70144.00
2019-04-23T08:43:07.504Z,69728.00
2019-04-23T08:44:06.909Z,70048.00
2019-04-23T08:45:58.382Z,72000.00
2019-04-23T08:47:03.315Z,71296.00
2019-04-23T08:48:07.895Z,70688.00
2019-04-23T08:49:06.500Z,70240.00
2019-04-23T08:51:03.493Z,68448.00
2019-04-23T08:52:10.167Z,69600.00
2019-04-23T08:53:03.748Z,73504.00
2019-04-23T08:53:55.503Z,71968.00
2019-04-23T08:57:02.709Z,67008.00
2019-04-23T08:57:57.309Z,67872.00
2019-04-23T08:58:59.517Z,69888.00
2019-04-23T08:59:58.769Z,70912.00
2019-04-23T09:01:05.779Z,69792.00
2019-04-23T09:02:15.946Z,68320.00
2019-04-23T09:03:02.391Z,66240.00
2019-04-23T09:03:56.038Z,65632.00
2019-04-23T09:05:00.763Z,66432.00
2019-04-23T09:05:58.006Z,67168.00
2019-04-23T09:07:04.499Z,66016.00
2019-04-23T09:08:56.838Z,62784.00
2019-04-23T09:11:54.282Z,67584.00
2019-04-23T09:13:10.145Z,69792.00
2019-04-23T09:13:55.639Z,69408.00
2019-04-23T09:15:01.618Z,69248.00
2019-04-23T09:15:58.222Z,67424.00
2019-04-23T09:17:03.494Z,65312.00
2019-04-23T09:19:07.784Z,61856.00
2019-04-23T09:20:11.884Z,59552.00
2019-04-23T09:20:55.243Z,56224.00
2019-04-23T09:22:00.535Z,54112.00
2019-04-23T09:22:50.400Z,52832.00
2019-04-23T09:25:02.638Z,53056.00
2019-04-23T09:27:00.128Z,58144.00
2019-04-23T09:28:05.269Z,62368.00
2019-04-23T09:28:57.995Z,67936.00
2019-04-23T09:30:00.662Z,71776.00
2019-04-23T09:31:04.011Z,73856.00
2019-04-23T09:32:13.550Z,71872.00
2019-04-23T09:33:00.724Z,70464.00
2019-04-23T09:33:58.037Z,68384.00
2019-04-23T09:35:52.525Z,71232.00
2019-04-23T09:38:59.805Z,77152.00
2019-04-23T09:40:04.826Z,76992.00
2019-04-23T09:41:53.635Z,78176.00
2019-04-23T09:43:00.633Z,80832.00
2019-04-23T09:44:09.454Z,81568.00
2019-04-23T09:45:56.358Z,82272.00
2019-04-23T09:47:00.712Z,78048.00
2019-04-23T09:48:03.580Z,77376.00
2019-04-23T09:49:20.831Z,77824.00
2019-04-23T09:50:01.697Z,80608.00
2019-04-23T09:50:54.138Z,82976.00
2019-04-23T09:52:00.746Z,82912.00
2019-04-23T09:53:11.532Z,84896.00
2019-04-23T09:53:58.078Z,86112.00
2019-04-23T09:55:04.664Z,88096.00
2019-04-23T09:56:10.348Z,88736.00
2019-04-23T09:56:52.685Z,92224.00
2019-04-23T09:59:02.358Z,89376.00
2019-04-23T09:59:59.150Z,86624.00
2019-04-23T10:00:54.486Z,83712.00
2019-04-23T10:01:50.145Z,83584.00
2019-04-23T10:02:47.334Z,83808.00
2019-04-23T10:03:40.587Z,85504.00
2019-04-23T10:04:44.930Z,88480.00
2019-04-23T10:05:39.989Z,92416.00
2019-04-23T10:06:33.354Z,92800.00
2019-04-23T10:07:40.572Z,91712.00
2019-04-23T10:08:36.323Z,89152.00
2019-04-23T10:09:30.094Z,87808.00
2019-04-23T10:10:30.264Z,88768.00
2019-04-23T10:11:30.535Z,91072.00
2019-04-23T10:12:30.238Z,90656.00
2019-04-23T10:13:29.818Z,88544.00
2019-04-23T10:14:30.421Z,88352.00
2019-04-23T10:15:36.206Z,89952.00
2019-04-23T10:16:33.471Z,91488.00
2019-04-23T10:17:29.537Z,93440.00
2019-04-23T10:18:30.927Z,98368.00
2019-04-23T10:19:30.785Z,99456.00
2019-04-23T10:20:30.876Z,96832.00
2019-04-23T10:21:31.059Z,93760.00
2019-04-23T10:22:32.248Z,90304.00
2019-04-23T10:23:29.622Z,87552.00
2019-04-23T10:24:30.846Z,88288.00
2019-04-23T10:25:30.165Z,89536.00
2019-04-23T10:26:30.277Z,89184.00
2019-04-23T10:27:29.535Z,88768.00
2019-04-23T10:28:29.696Z,86912.00
2019-04-23T10:29:29.913Z,85728.00
2019-04-23T10:30:30.947Z,86176.00
2019-04-23T10:31:29.309Z,87936.00
2019-04-23T10:32:29.808Z,90016.00
2019-04-23T10:33:29.641Z,91232.00
2019-04-23T10:34:30.493Z,89920.00
2019-04-23T10:35:39.068Z,87424.00
2019-04-23T10:36:31.685Z,85536.00
2019-04-23T10:37:36.763Z,82560.00
2019-04-23T10:38:30.738Z,80096.00
2019-04-23T10:39:35.294Z,78784.00
2019-04-23T10:40:33.867Z,78432.00
2019-04-23T10:41:30.600Z,78048.00
2019-04-23T10:42:32.070Z,75872.00
2019-04-23T10:43:31.491Z,72864.00
2019-04-23T10:44:30.641Z,70976.00
2019-04-23T10:45:44.719Z,72256.00
2019-04-23T10:46:48.886Z,76224.00
2019-04-23T10:48:03.728Z,80352.00
2019-04-23T10:49:00.616Z,83968.00
2019-04-23T10:50:01.078Z,82592.00
2019-04-23T10:51:59.613Z,75488.00
2019-04-23T10:53:05.062Z,74368.00
2019-04-23T10:54:04.806Z,75936.00
2019-04-23T10:55:03.248Z,77376.00
2019-04-23T10:57:56.343Z,75808.00
2019-04-23T10:58:54.187Z,73152.00
2019-04-23T10:59:53.569Z,71168.00
2019-04-23T11:01:07.320Z,70240.00
2019-04-23T11:02:22.234Z,73376.00
2019-04-23T11:03:00.615Z,80384.00
2019-04-23T11:04:11.907Z,87840.00
2019-04-23T11:04:57.326Z,92800.00
2019-04-23T11:06:00.183Z,92032.00
2019-04-23T11:07:07.262Z,89312.00
2019-04-23T11:07:47.064Z,85184.00
2019-04-23T11:08:50.132Z,83424.00
2019-04-23T11:11:00.162Z,86336.00
2019-04-23T11:12:01.762Z,88640.00
2019-04-23T11:14:01.232Z,87776.00
2019-04-23T11:15:10.526Z,85248.00
2019-04-23T11:20:58.675Z,89440.00
2019-04-23T11:22:05.848Z,86144.00
2019-04-23T11:22:51.698Z,83008.00
2019-04-23T11:24:02.058Z,82368.00
2019-04-23T11:25:23.630Z,83040.00
2019-04-23T11:25:48.636Z,83072.00
2019-04-23T11:27:00.469Z,85408.00
2019-04-23T11:28:02.959Z,87296.00
2019-04-23T11:28:51.899Z,90176.00
2019-04-23T11:30:00.509Z,93536.00
2019-04-23T11:31:09.063Z,93280.00
2019-04-23T11:32:06.769Z,90944.00
2019-04-23T11:34:01.107Z,87168.00
2019-04-23T11:35:14.292Z,85984.00
2019-04-23T11:36:18.914Z,86624.00
2019-04-23T11:38:58.728Z,91744.00
2019-04-23T11:40:01.646Z,92736.00
2019-04-23T11:40:48.990Z,90944.00
2019-04-23T11:42:26.259Z,89792.00
2019-04-23T11:43:14.318Z,89600.00
2019-04-23T11:43:54.462Z,91424.00
2019-04-23T11:44:56.387Z,94400.00
2019-04-23T11:51:26.789Z,79264.00
2019-04-23T11:52:56.909Z,87456.00
2019-04-23T11:54:01.541Z,90496.00
2019-04-23T11:55:00.955Z,90944.00
2019-04-23T11:57:14.220Z,86592.00
2019-04-23T11:58:08.408Z,86464.00
2019-04-23T11:58:52.456Z,86336.00
2019-04-23T12:01:02.231Z,85728.00
2019-04-23T12:02:07.343Z,86368.00
2019-04-23T12:04:05.425Z,88192.00
2019-04-23T12:05:02.333Z,89632.00
2019-04-23T12:06:00.298Z,88576.00
2019-04-23T12:06:59.740Z,85344.00
2019-04-23T12:08:03.797Z,81824.00
2019-04-23T12:09:02.911Z,78912.00
2019-04-23T12:11:24.172Z,79104.00
2019-04-23T12:12:59.711Z,83616.00
2019-04-23T12:14:04.237Z,83520.00
2019-04-23T12:14:51.292Z,80896.00
2019-04-23T12:15:53.935Z,77824.00
2019-04-23T12:17:08.036Z,74720.00
2019-04-23T12:19:19.310Z,70784.00
2019-04-23T12:20:21.412Z,70624.00
2019-04-23T12:20:52.749Z,68960.00
2019-04-23T12:22:04.664Z,66400.00
2019-04-23T12:24:15.681Z,66080.00
2019-04-23T12:25:08.504Z,67456.00
2019-04-23T12:26:03.125Z,70208.00
2019-04-23T12:27:00.413Z,69888.00
2019-04-23T12:27:44.058Z,65568.00
2019-04-23T12:28:57.708Z,57888.00
2019-04-23T12:29:55.349Z,54848.00
2019-04-23T12:30:57.309Z,54432.00
2019-04-23T12:32:08.465Z,56960.00
2019-04-23T12:33:10.587Z,63328.00
2019-04-23T12:34:00.746Z,68928.00
2019-04-23T12:35:51.534Z,71424.00
2019-04-23T12:36:50.943Z,66688.00
2019-04-23T12:38:58.129Z,58976.00
2019-04-23T12:40:01.546Z,57696.00
2019-04-23T12:42:01.838Z,59328.00
2019-04-23T12:43:12.694Z,59584.00
2019-04-23T12:43:51.642Z,59872.00
2019-04-23T12:45:46.856Z,64256.00
2019-04-23T12:47:04.872Z,65312.00
2019-04-23T12:49:07.034Z,62816.00
2019-04-23T12:50:31.180Z,60544.00
2019-04-23T12:51:12.667Z,57856.00
2019-04-23T12:51:55.502Z,56992.00
2019-04-23T12:53:07.081Z,58592.00
2019-04-23T12:53:49.339Z,62240.00
2019-04-23T12:55:15.314Z,67232.00
2019-04-23T12:55:50.559Z,68832.00
2019-04-23T12:57:50.752Z,58720.00
2019-04-23T12:58:46.484Z,55744.00
2019-04-23T12:59:58.445Z,55840.00
2019-04-23T13:00:45.573Z,55488.00
2019-04-23T13:01:55.909Z,57760.00
2019-04-23T13:02:58.927Z,62240.00
2019-04-23T13:03:49.194Z,68736.00
2019-04-23T13:04:51.723Z,69024.00
2019-04-23T13:05:42.171Z,66272.00
2019-04-23T13:06:50.756Z,61568.00
2019-04-23T13:07:53.944Z,58112.00
2019-04-23T13:08:55.520Z,56864.00
2019-04-23T13:10:01.605Z,56992.00
2019-04-23T13:10:50.137Z,57440.00
2019-04-23T13:12:20.224Z,57984.00
2019-04-23T13:13:01.454Z,60256.00
2019-04-23T13:13:58.730Z,61984.00
2019-04-23T13:14:57.334Z,63360.00
2019-04-23T13:15:51.875Z,62304.00
2019-04-23T13:17:01.869Z,60384.00
2019-04-23T13:18:50.094Z,61440.00
2019-04-23T13:20:00.190Z,64320.00
2019-04-23T13:20:53.953Z,67968.00
2019-04-23T13:23:49.416Z,38400.00
2019-04-23T13:24:55.296Z,59808.00
2019-04-23T13:25:55.830Z,59840.00
2019-04-23T13:26:56.081Z,62080.00
2019-04-23T13:28:02.717Z,65184.00
2019-04-23T13:28:51.023Z,68096.00
2019-04-23T13:30:00.304Z,70048.00
2019-04-23T13:31:50.229Z,67360.00
2019-04-23T13:33:02.672Z,63040.00
2019-04-23T13:35:12.851Z,57312.00
2019-04-23T13:36:53.600Z,65728.00
2019-04-23T13:38:47.298Z,63616.00
2019-04-23T13:39:54.080Z,60672.00
2019-04-23T13:41:54.053Z,60256.00
2019-04-23T13:43:02.894Z,55680.00
2019-04-23T13:44:00.178Z,35232.00
2019-04-23T13:44:55.911Z,57248.00
2019-04-23T13:47:00.805Z,61728.00
2019-04-23T13:48:03.466Z,59040.00
2019-04-23T13:48:48.971Z,61664.00
2019-04-23T13:50:00.237Z,60096.00
2019-04-23T13:51:54.994Z,59488.00
2019-04-23T13:53:07.886Z,58464.00
2019-04-23T13:53:53.630Z,57888.00
2019-04-23T13:55:04.294Z,29472.00
2019-04-23T13:55:53.023Z,28064.00
2019-04-23T13:57:25.561Z,22432.00
2019-04-23T13:58:07.430Z,57504.00
2019-04-23T13:58:57.743Z,59360.00
2019-04-23T13:59:52.336Z,59296.00
2019-04-23T14:01:00.917Z,60544.00
2019-04-23T14:01:46.838Z,65216.00
2019-04-23T14:02:54.769Z,63648.00
2019-04-23T14:04:11.959Z,62784.00
2019-04-23T14:05:02.581Z,64480.00
2019-04-23T14:06:01.792Z,67136.00
2019-04-23T14:08:00.821Z,65024.00
2019-04-23T14:10:08.411Z,58784.00
2019-04-23T14:11:16.042Z,60352.00
2019-04-23T14:11:46.676Z,61696.00
2019-04-23T14:13:08.691Z,60256.00
2019-04-23T14:14:00.044Z,58656.00
2019-04-23T14:14:56.298Z,34016.00
2019-04-23T14:16:13.830Z,26208.00
2019-04-23T14:17:18.103Z,28544.00
2019-04-23T14:18:11.030Z,35072.00
2019-04-23T14:19:53.192Z,20448.00
2019-04-23T14:20:55.408Z,21024.00
2019-04-23T14:21:53.216Z,21344.00
2019-04-23T14:23:08.271Z,21312.00
2019-04-23T14:24:11.900Z,22816.00
2019-04-23T14:26:10.890Z,27776.00
2019-04-23T14:26:50.595Z,26112.00
2019-04-23T14:27:56.342Z,28512.00
2019-04-23T14:32:53.708Z,28416.00
2019-04-23T14:35:04.255Z,25184.00
2019-04-23T14:35:49.785Z,23456.00
2019-04-23T14:36:57.767Z,22560.00
2019-04-23T14:38:11.323Z,22336.00
2019-04-23T14:39:16.309Z,23232.00
2019-04-23T14:39:56.028Z,23872.00
2019-04-23T14:41:06.150Z,24736.00
2019-04-23T14:42:02.768Z,29216.00
2019-04-23T14:43:03.564Z,27808.00
2019-04-23T14:44:03.675Z,24288.00
2019-04-23T14:45:02.701Z,23904.00
2019-04-23T14:46:27.078Z,22912.00
2019-04-23T14:46:58.283Z,22048.00
2019-04-23T14:47:59.055Z,22560.00
2019-04-23T14:50:18.671Z,24128.00
2019-04-23T14:50:51.705Z,25056.00
2019-04-23T14:52:02.384Z,24320.00
2019-04-23T14:52:58.900Z,24000.00
2019-04-23T14:53:48.460Z,23488.00
2019-04-23T14:57:03.967Z,18944.00
2019-04-23T14:58:06.384Z,18720.00
2019-04-23T14:59:01.702Z,19584.00